createdAt,value
2022-11-27T15:30:02.610Z,64.86
2022-11-27T17:55:12.304Z,68.22
2022-11-27T18:00:14.216Z,69.12
2022-11-27T18:05:15.683Z,69.31
2022-11-27T18:10:18.323Z,68.80
2022-11-27T18:15:20.561Z,68.78
2022-11-27T18:20:22.296Z,69.87
2022-11-27T18:25:23.764Z,68.99
2022-11-27T18:30:25.742Z,69.88
2022-11-27T18:35:27.247Z,69.84
2022-11-27T18:40:28.745Z,69.72
2022-11-27T18:45:33.657Z,70.19
2022-11-27T18:50:37.445Z,69.79
2022-11-27T18:55:38.854Z,70.22
2022-11-27T19:00:40.263Z,70.00
2022-11-27T19:05:41.802Z,70.02
2022-11-27T19:10:43.244Z,70.29
2022-11-27T19:15:44.980Z,69.90
2022-11-27T19:20:46.814Z,69.79
2022-11-27T19:25:48.273Z,70.06
2022-11-27T19:30:49.768Z,70.35
2022-11-27T19:35:52.300Z,69.73
2022-11-27T19:40:53.854Z,70.56
2022-11-27T19:45:55.377Z,70.86
2022-11-27T19:51:01.574Z,70.89
2022-11-27T19:56:03.810Z,71.39
2022-11-27T20:01:10.965Z,71.64
2022-11-27T20:06:18.298Z,71.78
2022-11-27T20:11:23.875Z,72.56
2022-11-27T20:16:26.454Z,71.92
2022-11-27T20:21:28.590Z,71.96
2022-11-27T20:26:30.131Z,71.96
2022-11-27T20:31:34.937Z,72.03
2022-11-27T20:36:39.427Z,72.13
2022-11-27T20:41:41.014Z,71.18
2022-11-27T20:46:42.423Z,71.10
2022-11-27T20:51:43.912Z,71.01
2022-11-27T20:56:45.328Z,70.92
2022-11-27T21:01:46.890Z,71.17
2022-11-27T21:06:49.632Z,70.87
2022-11-27T21:11:51.123Z,70.35
2022-11-27T21:16:53.329Z,69.83
2022-11-27T21:21:55.338Z,70.58
2022-11-27T21:26:56.912Z,71.43
2022-11-27T21:31:58.651Z,71.71
2022-11-27T21:37:00.107Z,71.64
2022-11-27T21:42:01.497Z,71.99
2022-11-27T21:47:03.307Z,71.90
2022-11-27T21:52:06.371Z,71.86
2022-11-27T21:57:07.851Z,71.84
2022-11-27T22:02:11.949Z,71.86
2022-11-27T22:07:13.879Z,72.36
2022-11-27T22:12:15.353Z,71.68
2022-11-27T22:17:16.927Z,71.41
2022-11-27T22:22:18.443Z,71.42
2022-11-27T22:27:19.954Z,72.22
2022-11-27T22:32:22.690Z,72.05
2022-11-27T22:37:24.148Z,71.64
2022-11-27T22:42:25.783Z,71.61
2022-11-27T22:47:27.303Z,71.26
2022-11-27T22:52:29.006Z,71.19
2022-11-27T22:57:30.439Z,71.04
2022-11-27T23:02:31.921Z,71.01
2022-11-27T23:07:33.727Z,71.31
2022-11-27T23:12:35.255Z,70.99
2022-11-27T23:17:36.739Z,71.58
2022-11-27T23:22:38.149Z,71.73
2022-11-27T23:27:39.608Z,71.82
2022-11-27T23:32:41.778Z,72.19
2022-11-27T23:37:43.259Z,71.53
2022-11-27T23:42:44.727Z,71.67
2022-11-27T23:47:46.181Z,71.59
2022-11-27T23:52:47.674Z,71.13
2022-11-27T23:57:49.116Z,71.30
